AirNav   Everest Fuels
 
 386 users online  

37TX Yates Field Airport
San Saba, Texas, USA

GOING TO SAN SABA?


FAA INFORMATION EFFECTIVE 26 MARCH 2020

Location

FAA Identifier: 37TX
Lat/Long: 31-19-17.5950N 098-51-56.1650W
31-19.293250N 098-51.936083W
31.3215542,-98.8656014
(estimated)
Elevation: 1418 ft. / 432 m (estimated)
Variation: 08E (1985)
From city: 10 miles NW of SAN SABA, TX
Time zone: UTC -5 (UTC -6 during Standard Time)
Zip code: 76877

Airport Operations

Airport use: Private use. Permission required prior to landing
Activation date: 11/1990
Control tower: no
ARTCC: HOUSTON CENTER
FSS: SAN ANGELO FLIGHT SERVICE STATION
Attendance: UNATNDD
Wind indicator: yes
Segmented circle: no

Airport Communications

WX AWOS-3 at 81R (9 nm SE): PHONE 325-372-6027

Nearby radio navigation aids

VOR radial/distance  VOR name  Freq  Var
LLOr345/31.8LLANO VORTAC108.2008E
BWDr164/34.6BROWNWOOD VOR/DME108.6008E
AGJr277/38.0GOOCH SPRINGS VORTAC112.5005E

Airport Services

Runway Information

Runway 4/22

Dimensions: 2200 x 100 ft. / 671 x 30 m
Surface: turf
Runway edge markings: 04/22 MARKED WITH PVC POSTS.
RUNWAY 4  RUNWAY 22
Latitude: 31-19.206333N31-19.380333N
Longitude: 098-52.121333W098-51.750500W
Elevation: 1391.0 ft.1418.0 ft.
Traffic pattern: leftleft
Runway heading: 053 magnetic, 061 true233 magnetic, 241 true

Airport Ownership and Management from official FAA records

Ownership: Privately-owned
Owner: H W YATES
PO BOX 1427
BAYTOWN, TX 77522
Phone 713-758-5221
Manager: H W YATES
PO BOX 1427
BAYTOWN, TX 77522
Phone 713-758-5221

Airport Operational Statistics

Aircraft based on the field: 1
Single engine airplanes: 1
    

Additional Remarks

WILDLIFE CROSSINGS ON RY.
FOR CD CTC HOUSTON ARTCC AT 281-230-5622.

Instrument Procedures

There are no published instrument procedures at 37TX.

Some nearby airports with instrument procedures:

KBBD - Curtis Field Airport (25 nm W)
KBWD - Brownwood Regional Airport (29 nm N)
KAQO - Llano Municipal Airport (34 nm S)
KLZZ - Lampasas Airport (37 nm E)
KMKN - Comanche County-City Airport (38 nm N)
 
Loc | Ops | Rwys | IFR | FBO | Links
Com | Nav | Svcs | Stats | Notes
Area around 37TX (Yates Field Airport)
 
Road maps at: MapQuest Bing Google
 
Aerial photo
No photo
 
Sectional chart

 
Airport distance calculator
Flying to Yates Field Airport? Find the distance to fly.

From to 37TX

Sunrise and sunset
Times for 10-Apr-2020
 Local
(UTC-5)
 Zulu
(UTC)
Morning civil twilight06:4811:48
Sunrise07:1312:13
Sunset20:0001:00
Evening civil twilight20:2501:25

Current date and time
Zulu (UTC)  10-Apr-2020 09:52:48
Local (UTC-5)  10-Apr-2020 04:52:48
 
METAR
KBBD 
25nm W 
100930Z AUTO 01005KT 7SM CLR 14/13 A3002 RMK AO2
KBWD 
29nm N 
100935Z AUTO 04008KT 10SM BKN035 13/07 A3005 RMK AO1
KAQO 
34nm S 
100910Z AUTO 04004KT 10SM CLR 17/16 A3003 RMK AO2 PWINO
KLZZ 
37nm E 
100935Z AUTO 03006KT 10SM CLR 16/14 A3000 RMK AO2 T01550141
KCOM 
42nm NW 
100930Z AUTO 36005KT 10SM CLR 11/08 A3006 RMK AO2 T01100076
KMNZ 
42nm NE 
100935Z AUTO 02007KT 10SM CLR 14/09 A3004 RMK AO2 T01360088
KBMQ 
48nm SE 
100853Z AUTO 02007KT 10SM CLR 17/14 A3000 RMK AO2 SLP145 T01670144 51004 $
TAF
KBBD 
25nm W 
100533Z 1006/1106 VRB06KT P6SM BKN100 FM100900 02009KT P6SM SCT025 BKN100 TEMPO 1011/1015 BKN025 FM101500 06011KT P6SM SCT025 SCT100 FM101800 09009KT P6SM SCT015 FM110300 12009KT P6SM BKN025
NOTAMs
Click for the latest NOTAMs
NOTAMs are issued by the DoD/FAA and will open in a separate window not controlled by AirNav.

 

 
 

Would you like to see your business listed on this page?

 If your business provides an interesting product or service to pilots, flight crews, aircraft, or users of the Yates Field Airport, you should consider listing it here.  To start the listing process, click on the button below
 
Add a business
 

Other Pages about Yates Field Airport

Update a link
 
Copyright © AirNav, LLC. All rights reserved. Privacy Policy  Contact